»·PEaware :: N1024W KASE-KSLC

N1024W :: KASE-KSLC

FLIGHT INFORMATION

Flight Status: Arrived
Operator: Privately registered:
United States
More flights under this callsign
Pilot: Eric W. (14379)
Aircraft: Unknown
(E35L)
More flights by this aircraft type
Origin: KASE Aspen-Pitkin Co/Sardy
United States
Destination: KSLC Salt Lake City Intl
United States
More flights between these airports :: More routes between these airports
Route: LINDZ9 JNC HELPR LEEHY5
File this flight plan on PilotEdge
Remarks:
Altitude:
(Current/Filed)
30,000ft
Speed:
(Current/Filed)
450kts
Departed: 02-Nov-19 10:21 AM
Arrived: 02-Nov-19 11:15 AM
Distance/Time
Traveled:
252nm/0:54
Distance/Time
To Go:
Arrived

Flight Plot

Page will automatically refresh every two minutes.

Flight plan parsing failed; only flown route is shown


Map Options




Map Legend


Flown Route
Filed Route
Departure Airport
Arrival Airport
Navaid (VOR, NDB)
Fix

Horizontal Profiles

Position Reports

Time Latitude Longitude Heading Altitude Ground
Speed
02-Nov-19 09:49 39.222894 -106.866637 111 7841ft 0kts
02-Nov-19 09:50 39.222894 -106.866637 111 7841ft 0kts
02-Nov-19 09:51 39.222894 -106.866637 111 7841ft 0kts
02-Nov-19 09:52 39.222894 -106.866637 111 7841ft 0kts
02-Nov-19 09:53 39.222894 -106.866637 111 7841ft 0kts
02-Nov-19 09:54 39.222894 -106.866637 111 7841ft 0kts
02-Nov-19 09:55 39.222894 -106.866637 111 7841ft 0kts
02-Nov-19 09:56 39.222894 -106.866637 111 7841ft 0kts
02-Nov-19 09:57 39.222894 -106.866637 111 7841ft 0kts
02-Nov-19 09:58 39.222894 -106.866637 111 7841ft 0kts
02-Nov-19 09:59 39.222894 -106.866637 111 7841ft 0kts
02-Nov-19 10:00 39.222894 -106.866637 111 7841ft 0kts
02-Nov-19 10:01 39.222894 -106.866637 111 7841ft 0kts
02-Nov-19 10:02 39.222894 -106.866637 111 7841ft 0kts
02-Nov-19 10:03 39.222894 -106.866637 110 7841ft 0kts
02-Nov-19 10:04 39.222894 -106.866637 111 7841ft 0kts
02-Nov-19 10:04 39.222894 -106.866637 111 7841ft 0kts
02-Nov-19 10:06 39.222894 -106.866637 111 7841ft 0kts
02-Nov-19 10:07 39.222894 -106.866637 111 7841ft 0kts
02-Nov-19 10:07 39.222894 -106.866637 111 7841ft 0kts
02-Nov-19 10:08 39.222854 -106.866569 136 7841ft 1kts
02-Nov-19 10:10 39.221935 -106.866988 194 7841ft 5kts
02-Nov-19 10:10 39.220502 -106.866422 159 7841ft 7kts
02-Nov-19 10:11 39.218213 -106.865336 159 7841ft 9kts
02-Nov-19 10:12 39.216004 -106.864295 159 7841ft 9kts
02-Nov-19 10:13 39.212976 -106.862856 160 7841ft 13kts
02-Nov-19 10:14 39.212282 -106.862591 179 7841ft 0kts
02-Nov-19 10:15 39.212282 -106.862591 179 7841ft 0kts
02-Nov-19 10:16 39.212282 -106.862591 179 7841ft 0kts
02-Nov-19 10:17 39.212282 -106.862591 179 7841ft 0kts
02-Nov-19 10:18 39.212282 -106.862591 179 7841ft 0kts
02-Nov-19 10:19 39.211768 -106.863040 243 7841ft 8kts
02-Nov-19 10:20 39.220888 -106.867790 339 7849ft 155kts
02-Nov-19 10:21 39.274440 -106.898959 286 10160ft 237kts
02-Nov-19 10:22 39.286774 -106.985255 283 12741ft 253kts
02-Nov-19 10:23 39.319398 -107.068337 313 15319ft 283kts
02-Nov-19 10:24 39.375233 -107.140745 309 17819ft 286kts
02-Nov-19 10:25 39.371879 -107.244964 259 20167ft 327kts
02-Nov-19 10:26 39.347198 -107.371667 259 22767ft 386kts
02-Nov-19 10:27 39.320333 -107.508624 259 25766ft 398kts
02-Nov-19 10:28 39.293448 -107.644868 259 28594ft 421kts
02-Nov-19 10:29 39.263938 -107.793108 258 30026ft 429kts
02-Nov-19 10:30 39.234246 -107.941302 258 30025ft 427kts
02-Nov-19 10:31 39.204122 -108.090583 258 29997ft 429kts
02-Nov-19 10:32 39.173750 -108.240017 258 30000ft 430kts
02-Nov-19 10:33 39.143309 -108.388742 258 29994ft 428kts
02-Nov-19 10:34 39.112663 -108.537428 258 29993ft 427kts
02-Nov-19 10:35 39.082750 -108.681527 257 29999ft 427kts
02-Nov-19 10:36 39.075803 -108.828859 294 30013ft 420kts
02-Nov-19 10:37 39.128972 -108.963734 296 29998ft 421kts
02-Nov-19 10:38 39.182987 -109.097647 296 29996ft 422kts
02-Nov-19 10:39 39.237141 -109.232472 296 29995ft 422kts
02-Nov-19 10:40 39.291212 -109.367685 296 29994ft 422kts
02-Nov-19 10:41 39.345030 -109.502865 296 29992ft 422kts
02-Nov-19 10:42 39.398583 -109.637980 296 29991ft 422kts
02-Nov-19 10:43 39.436780 -109.734722 296 29998ft 423kts
02-Nov-19 10:44 39.490447 -109.871167 296 29997ft 423kts
02-Nov-19 10:45 39.543947 -110.007803 296 29996ft 424kts
02-Nov-19 10:46 39.597347 -110.144810 296 29994ft 424kts
02-Nov-19 10:47 39.650623 -110.282118 296 29993ft 424kts
02-Nov-19 10:48 39.703421 -110.418819 296 29992ft 424kts
02-Nov-19 10:49 39.756264 -110.556274 296 29991ft 424kts
02-Nov-19 10:50 39.808714 -110.693359 295 29997ft 424kts
02-Nov-19 10:51 39.861204 -110.831176 295 29996ft 425kts
02-Nov-19 10:52 39.913671 -110.969582 295 29963ft 426kts
02-Nov-19 10:53 39.964706 -111.104829 295 27424ft 415kts
02-Nov-19 10:54 40.015246 -111.239379 295 24897ft 406kts
02-Nov-19 10:55 40.064077 -111.369974 295 22364ft 394kts
02-Nov-19 10:56 40.109604 -111.492241 296 19831ft 360kts
02-Nov-19 10:57 40.151803 -111.606090 296 19021ft 341kts
02-Nov-19 10:58 40.193775 -111.719792 295 18436ft 356kts
02-Nov-19 10:59 40.236586 -111.836085 295 17016ft 350kts
02-Nov-19 11:00 40.284547 -111.946731 321 16608ft 356kts
02-Nov-19 11:01 40.366663 -112.009807 328 14985ft 318kts
02-Nov-19 11:02 40.447883 -112.053373 351 14072ft 320kts
02-Nov-19 11:03 40.535050 -112.065033 352 11556ft 314kts
02-Nov-19 11:04 40.617501 -112.076024 352 10974ft 285kts
02-Nov-19 11:05 40.697106 -112.085551 352 10958ft 283kts
02-Nov-19 11:06 40.770417 -112.094121 352 10947ft 241kts
02-Nov-19 11:07 40.835721 -112.101910 353 8576ft 237kts
02-Nov-19 11:08 40.900722 -112.102820 36 6086ft 227kts
02-Nov-19 11:09 40.908528 -112.026076 91 5955ft 206kts
02-Nov-19 11:10 40.893609 -111.963549 169 5925ft 179kts
02-Nov-19 11:11 40.848614 -111.963668 176 5179ft 143kts
02-Nov-19 11:12 40.809719 -111.962242 178 4508ft 138kts
02-Nov-19 11:13 40.780158 -111.962069 179 4234ft 49kts
02-Nov-19 11:14 40.776361 -111.959475 89 4234ft 12kts
02-Nov-19 11:15 40.776068 -111.958517 176 4234ft 0kts
02-Nov-19 11:16 40.776068 -111.958517 176 4234ft 0kts
02-Nov-19 11:17 40.776068 -111.958517 176 4234ft 0kts
02-Nov-19 11:18 40.776068 -111.958517 176 4234ft 0kts
02-Nov-19 11:19 40.776068 -111.958517 176 4234ft 0kts
02-Nov-19 11:20 40.776068 -111.958517 176 4234ft 0kts
02-Nov-19 11:21 40.776068 -111.958517 176 4234ft 0kts
02-Nov-19 11:22 40.776068 -111.958517 176 4234ft 0kts
02-Nov-19 11:23 40.776068 -111.958517 176 4234ft 0kts
02-Nov-19 11:24 40.776068 -111.958517 176 4234ft 0kts
02-Nov-19 11:25 40.776068 -111.958517 176 4234ft 0kts
02-Nov-19 11:26 40.776068 -111.958517 176 4234ft 0kts
02-Nov-19 11:27 40.776068 -111.958517 176 4234ft 0kts
02-Nov-19 11:28 40.776068 -111.958517 176 4234ft 0kts
02-Nov-19 11:29 40.776068 -111.958517 176 4234ft 0kts

Navigation Log

Ident Type
Flight plan parsing failed, navigation log unavailable